X  Schließen METAR Luftfahrt Wetterdaten        EDDR Saarbrücken
Temperatur
13°C Temperatur
13°C Taupunkt
100% Feuchtigkeit



Wind
11 km/h
7 MPS
3 M/S
6 KTS



270°
W
Aktuelle Wetterlage

Mostly Cloudy with Light Rain Meistens bewölkt , Leicht Regen
Luftdruck 1008 (hPa) - 29.76 (inHg)
Sichtweite 3 (Meile) - 4 (Km)
Flughafen
Flughafen Code EDDR

Position : Saarbrücken
Entfernung: 8 (Km)

Metar:
METAR EDDR 210650Z AUTO 27006KT 4100 -RA BR BKN003 BKN008 13/13 Q1008 TEMPO 5000

Zeit: 21-05-2024 08:50 CEST